Key West, Florida
Current Conditions -  °F | °C
As of 12:53 AM on Wednesday 26 Nov 2014 (Local Time) from KEYW Reporting Station
Clear Clear  
Wind Chill: 26°   Ceiling: Unl
Heat Index: 28°   Visibility: 10mi
Dew Point: 25°   Wind: 9mph
Humidity: 94%   Direction: 190°S
Pressure: 29.94"   Gusts: NA
Location:  24.55°N, 81.8°W
Report Text: KEYW 260553Z AUTO 19008KT 10SM CLR 26/25 A2994 RMK AO2 SLP136 60008 T02610250 10267 20261 56012
Loading
Personal Weather Stations






























Interactive Weather Map New forecast layout! Learn more

10-Day Weather Forecast

Advertisements
Track Severe Weather on mobile